createdAt,value
2018-06-17T00:01:45.272Z,115.5988
2018-06-17T00:02:50.442Z,115.8498
2018-06-17T00:03:55.383Z,115.3452
2018-06-17T00:05:00.550Z,115.5988
2018-06-17T00:06:04.873Z,114.6714
2018-06-17T00:07:10.114Z,114.6714
2018-06-17T00:08:15.569Z,115.3452
2018-06-17T00:09:20.726Z,115.3452
2018-06-17T00:10:26.407Z,115.8498
2018-06-17T00:11:31.286Z,115.5988
2018-06-17T00:12:36.514Z,115.5988
2018-06-17T00:13:41.944Z,115.1787
2018-06-17T00:14:47.089Z,115.1787
2018-06-17T00:15:52.067Z,115.3452
2018-06-17T00:16:57.230Z,114.925
2018-06-17T00:18:02.410Z,114.925
2018-06-17T00:19:07.403Z,114.925
2018-06-17T00:20:12.564Z,113.9157
2018-06-17T00:21:17.994Z,113.9157
2018-06-17T00:22:23.537Z,113.9157
2018-06-17T00:23:28.968Z,114.1667
2018-06-17T00:24:34.460Z,114.1667
2018-06-17T00:25:39.621Z,113.662
2018-06-17T00:26:45.054Z,113.662
2018-06-17T00:27:50.514Z,114.4203
2018-06-17T00:28:55.678Z,113.9157
2018-06-17T00:30:00.823Z,114.1667
2018-06-17T00:31:06.124Z,112.9882
2018-06-17T00:32:11.271Z,113.4929
2018-06-17T00:33:16.161Z,113.4929
2018-06-17T00:34:22.001Z,113.4929
2018-06-17T00:35:27.461Z,113.662
2018-06-17T00:36:33.540Z,113.9157
2018-06-17T00:37:38.395Z,113.2419
2018-06-17T00:38:43.548Z,113.662
2018-06-17T00:39:49.458Z,113.4929
2018-06-17T00:40:54.912Z,113.2419
2018-06-17T00:42:00.354Z,113.662
2018-06-17T00:43:05.776Z,113.662
2018-06-17T00:44:10.639Z,113.9157
2018-06-17T00:45:15.495Z,114.1667
2018-06-17T00:46:21.330Z,113.4929
2018-06-17T00:47:26.490Z,114.1667
2018-06-17T00:48:32.321Z,113.662
2018-06-17T00:49:37.462Z,113.2419
2018-06-17T00:50:42.620Z,113.2419
2018-06-17T00:51:48.133Z,113.4929
2018-06-17T00:52:53.329Z,113.2419
2018-06-17T00:53:58.764Z,113.4929
2018-06-17T00:55:03.598Z,114.1667
2018-06-17T00:56:08.473Z,114.1667
2018-06-17T00:57:13.635Z,114.1667
2018-06-17T00:58:19.039Z,113.4929
2018-06-17T00:59:24.483Z,112.8217
2018-06-17T01:00:29.493Z,112.9882
2018-06-17T01:01:34.948Z,112.8217
2018-06-17T01:02:39.537Z,112.8217
2018-06-17T01:03:44.943Z,112.3171
2018-06-17T01:04:50.378Z,112.9882
2018-06-17T01:05:54.958Z,112.9882
2018-06-17T01:06:59.949Z,113.2419
2018-06-17T01:08:05.121Z,112.5681
2018-06-17T01:09:10.263Z,112.8217
2018-06-17T01:10:16.202Z,112.8217
2018-06-17T01:11:21.039Z,112.9882
2018-06-17T01:12:40.809Z,112.9882
2018-06-17T01:13:46.242Z,112.3171
2018-06-17T01:14:51.397Z,112.9882
2018-06-17T01:15:57.192Z,114.1667
2018-06-17T01:17:02.639Z,113.4929
2018-06-17T01:18:06.981Z,113.2419
2018-06-17T01:19:12.801Z,112.9882
2018-06-17T01:20:17.954Z,112.5681
2018-06-17T01:21:23.108Z,112.9882
2018-06-17T01:22:28.815Z,112.8217
2018-06-17T01:23:34.001Z,113.2419
2018-06-17T01:24:39.146Z,112.5681
2018-06-17T01:25:44.298Z,112.3171
2018-06-17T01:26:49.730Z,112.3171
2018-06-17T01:27:54.954Z,112.5681
2018-06-17T01:29:00.388Z,112.5681
2018-06-17T01:30:05.555Z,112.8217
2018-06-17T01:31:11.252Z,112.3171
2018-06-17T01:32:16.122Z,112.9882
2018-06-17T01:33:21.275Z,112.3171
2018-06-17T01:34:26.690Z,112.5681
2018-06-17T01:35:31.604Z,112.3171
2018-06-17T01:36:37.660Z,112.0634
2018-06-17T01:37:42.811Z,112.3171
2018-06-17T01:38:47.675Z,111.8124
2018-06-17T01:39:53.230Z,112.3171
2018-06-17T01:40:58.682Z,111.3051
2018-06-17T01:42:04.113Z,111.5587
2018-06-17T01:43:09.799Z,111.8124
2018-06-17T01:44:15.267Z,110.803
2018-06-17T01:45:20.706Z,111.8124
2018-06-17T01:46:26.557Z,112.3171
2018-06-17T01:47:31.995Z,112.3171
2018-06-17T01:48:37.460Z,113.2419
2018-06-17T01:49:42.605Z,112.3171
2018-06-17T01:50:48.144Z,112.8217
2018-06-17T01:51:53.992Z,112.8217
2018-06-17T01:52:59.441Z,112.0634
2018-06-17T01:54:04.871Z,112.5681
2018-06-17T01:55:10.371Z,112.3171
2018-06-17T01:56:15.245Z,112.3171
2018-06-17T01:57:20.395Z,112.3171
2018-06-17T01:58:25.803Z,112.9882
2018-06-17T01:59:30.950Z,112.0634
2018-06-17T02:00:36.349Z,112.0634
2018-06-17T02:01:41.795Z,111.8124
2018-06-17T02:02:47.221Z,112.3171
2018-06-17T02:03:53.014Z,112.0634
2018-06-17T02:04:58.465Z,111.5587
2018-06-17T02:06:03.318Z,112.8217
2018-06-17T02:07:09.013Z,111.5587
2018-06-17T02:08:14.158Z,112.3171
2018-06-17T02:09:19.320Z,111.8124
2018-06-17T02:10:24.732Z,112.3171
2018-06-17T02:11:29.888Z,111.8124
2018-06-17T02:12:35.817Z,111.5587
2018-06-17T02:13:40.960Z,111.3051
2018-06-17T02:14:45.828Z,112.3171
2018-06-17T02:15:51.224Z,111.5587
2018-06-17T02:16:56.656Z,111.8124
2018-06-17T02:18:01.232Z,111.8124
2018-06-17T02:19:05.636Z,110.803
2018-06-17T02:20:10.780Z,111.3051
2018-06-17T02:21:15.977Z,111.054
2018-06-17T02:22:21.691Z,111.3051
2018-06-17T02:23:27.129Z,111.8124
2018-06-17T02:24:32.018Z,112.0634
2018-06-17T02:25:36.924Z,111.5587
2018-06-17T02:26:42.083Z,110.6339
2018-06-17T02:27:47.224Z,111.5587
2018-06-17T02:28:52.078Z,111.3051
2018-06-17T02:29:57.252Z,111.3051
2018-06-17T02:31:02.462Z,111.054
2018-06-17T02:32:07.345Z,111.3051
2018-06-17T02:33:12.825Z,111.3051
2018-06-17T02:34:18.219Z,111.3051
2018-06-17T02:35:23.649Z,111.5587
2018-06-17T02:36:29.532Z,111.5587
2018-06-17T02:37:34.976Z,110.803
2018-06-17T02:38:40.424Z,111.054
2018-06-17T02:39:45.833Z,110.6339
2018-06-17T02:40:51.271Z,110.803
2018-06-17T02:41:56.733Z,111.054
2018-06-17T02:43:02.383Z,110.3802
2018-06-17T02:44:07.526Z,110.3802
2018-06-17T02:45:12.964Z,110.803
2018-06-17T02:46:18.651Z,110.3802
2018-06-17T02:47:23.803Z,109.6245
2018-06-17T02:48:29.377Z,110.3802
2018-06-17T02:49:34.236Z,110.6339
2018-06-17T02:50:39.662Z,110.1292
2018-06-17T02:51:45.075Z,110.803
2018-06-17T02:52:50.244Z,109.8756
2018-06-17T02:53:55.100Z,110.6339
2018-06-17T02:55:00.531Z,111.054
2018-06-17T02:56:05.401Z,111.5587
2018-06-17T02:57:10.833Z,110.803
2018-06-17T02:58:16.527Z,111.054
2018-06-17T02:59:21.421Z,110.6339
2018-06-17T03:00:26.586Z,110.803
2018-06-17T03:01:31.141Z,110.6339
2018-06-17T03:02:36.301Z,110.803
2018-06-17T03:03:41.742Z,110.1292
2018-06-17T03:04:47.159Z,110.803
2018-06-17T03:05:52.308Z,110.3802
2018-06-17T03:06:58.089Z,110.1292
2018-06-17T03:08:02.685Z,110.1292
2018-06-17T03:09:07.595Z,110.6339
2018-06-17T03:10:12.818Z,109.8756
2018-06-17T03:11:17.685Z,109.8756
2018-06-17T03:12:23.267Z,109.8756
2018-06-17T03:13:28.763Z,110.6339
2018-06-17T03:14:34.196Z,109.8756
2018-06-17T03:15:39.777Z,109.8756
2018-06-17T03:16:44.925Z,109.8756
2018-06-17T03:17:50.360Z,108.8662
2018-06-17T03:18:55.922Z,109.6245
2018-06-17T03:20:00.814Z,109.1199
2018-06-17T03:21:05.988Z,109.6245
2018-06-17T03:22:11.681Z,109.6245
2018-06-17T03:23:16.550Z,109.1199
2018-06-17T03:24:21.696Z,108.8662
2018-06-17T03:25:27.482Z,108.3615
2018-06-17T03:26:32.969Z,107.6877
2018-06-17T03:27:38.407Z,108.3615
2018-06-17T03:28:42.433Z,108.195
2018-06-17T03:29:47.602Z,108.3615
2018-06-17T03:30:53.016Z,109.3709
2018-06-17T03:31:58.451Z,108.8662
2018-06-17T03:33:03.320Z,108.8662
2018-06-17T03:34:09.102Z,108.3615
2018-06-17T03:35:14.530Z,108.195
2018-06-17T03:36:19.685Z,108.3615
2018-06-17T03:37:24.249Z,108.195
2018-06-17T03:38:29.109Z,107.9414
2018-06-17T03:39:35.048Z,108.3615
2018-06-17T03:40:40.208Z,107.1857
2018-06-17T03:41:44.798Z,107.6877
2018-06-17T03:42:50.580Z,107.4367
2018-06-17T03:43:55.449Z,106.932
2018-06-17T03:45:00.603Z,107.1857
2018-06-17T03:46:05.597Z,106.4273
2018-06-17T03:47:10.476Z,107.1857
2018-06-17T03:48:15.634Z,106.932
2018-06-17T03:49:21.420Z,106.932
2018-06-17T03:50:26.579Z,106.4273
2018-06-17T03:51:31.674Z,107.4367
2018-06-17T03:52:36.828Z,106.4273
2018-06-17T03:53:41.694Z,107.4367
2018-06-17T03:54:47.337Z,106.932
2018-06-17T03:55:52.774Z,107.4367
2018-06-17T03:56:58.218Z,107.9414
2018-06-17T03:58:02.494Z,107.1857
2018-06-17T03:59:07.361Z,106.932
2018-06-17T04:00:12.515Z,107.6877
2018-06-17T04:01:17.371Z,107.4367
2018-06-17T04:02:21.974Z,106.932
2018-06-17T04:03:27.436Z,106.4273
2018-06-17T04:04:32.878Z,106.4273
2018-06-17T04:05:38.031Z,106.1763
2018-06-17T04:06:43.729Z,106.4273
2018-06-17T04:07:48.879Z,106.4273
2018-06-17T04:08:54.027Z,106.681
2018-06-17T04:09:59.714Z,106.681
2018-06-17T04:11:04.330Z,105.7535
2018-06-17T04:12:09.488Z,106.4273
2018-06-17T04:13:14.604Z,106.4273
2018-06-17T04:14:19.778Z,105.5025
2018-06-17T04:15:39.836Z,105.5025
2018-06-17T04:16:44.980Z,105.5025
2018-06-17T04:17:50.410Z,105.5025
2018-06-17T04:18:56.288Z,105.9226
2018-06-17T04:20:01.723Z,105.2489
2018-06-17T04:21:06.610Z,105.9226
2018-06-17T04:22:12.163Z,105.2489
2018-06-17T04:23:17.311Z,105.2489
2018-06-17T04:24:22.505Z,104.9978
2018-06-17T04:25:28.486Z,105.9226
2018-06-17T04:26:33.322Z,104.9978
2018-06-17T04:27:38.537Z,104.9978
2018-06-17T04:28:43.393Z,104.9978
2018-06-17T04:29:48.841Z,105.5025
2018-06-17T04:30:54.681Z,104.324
2018-06-17T04:32:00.109Z,104.5777
2018-06-17T04:33:04.989Z,104.5777
2018-06-17T04:34:10.121Z,105.5025
2018-06-17T04:35:14.700Z,104.9978
2018-06-17T04:36:19.891Z,104.9978
2018-06-17T04:37:25.444Z,105.7535
2018-06-17T04:38:30.629Z,105.5025
2018-06-17T04:39:35.328Z,106.1763
2018-06-17T04:40:40.486Z,104.9978
2018-06-17T04:41:45.107Z,104.9978
2018-06-17T04:42:50.238Z,104.324
2018-06-17T04:43:55.387Z,104.9978
2018-06-17T04:45:00.822Z,105.7535
2018-06-17T04:46:06.230Z,105.5025
2018-06-17T04:47:11.673Z,104.9978
2018-06-17T04:48:16.825Z,105.2489
2018-06-17T04:49:22.265Z,104.9978
2018-06-17T04:50:27.428Z,104.5777
2018-06-17T04:51:33.258Z,104.9978
2018-06-17T04:52:38.418Z,105.2489
2018-06-17T04:53:43.866Z,104.324
2018-06-17T04:54:49.324Z,105.2489
2018-06-17T04:55:54.755Z,105.2489
2018-06-17T04:57:00.193Z,104.9978
2018-06-17T04:58:05.977Z,104.324
2018-06-17T04:59:10.842Z,104.073
2018-06-17T05:00:16.276Z,104.5777
2018-06-17T05:01:21.522Z,104.5777
2018-06-17T05:02:26.380Z,104.324
2018-06-17T05:03:32.410Z,103.822
2018-06-17T05:04:37.868Z,104.073
2018-06-17T05:05:43.043Z,103.5683
2018-06-17T05:06:47.809Z,103.822
2018-06-17T05:07:52.956Z,103.822
2018-06-17T05:08:58.120Z,104.073
2018-06-17T05:10:03.237Z,104.324
2018-06-17T05:11:08.396Z,104.5777
2018-06-17T05:12:13.827Z,104.073
2018-06-17T05:13:19.512Z,105.2489
2018-06-17T05:14:24.663Z,104.5777
2018-06-17T05:15:30.055Z,104.5777
2018-06-17T05:16:35.197Z,104.5777
2018-06-17T05:17:40.371Z,105.2489
2018-06-17T05:18:46.234Z,105.9226
2018-06-17T05:19:51.668Z,105.7535
2018-06-17T05:20:57.109Z,105.5025
2018-06-17T05:22:02.683Z,105.5025
2018-06-17T05:23:07.834Z,105.5025
2018-06-17T05:24:13.000Z,103.822
2018-06-17T05:25:18.783Z,104.9978
2018-06-17T05:26:23.893Z,105.2489
2018-06-17T05:27:29.337Z,104.9978
2018-06-17T05:28:34.212Z,104.9978
2018-06-17T05:29:39.373Z,104.324
2018-06-17T05:30:44.706Z,105.2489
2018-06-17T05:31:50.139Z,104.9978
2018-06-17T05:32:55.588Z,105.2489
2018-06-17T05:34:01.142Z,104.324
2018-06-17T05:35:05.744Z,104.324
2018-06-17T05:36:11.178Z,104.324
2018-06-17T05:37:16.782Z,104.073
2018-06-17T05:38:22.256Z,104.9978
2018-06-17T05:39:27.521Z,104.073
2018-06-17T05:40:32.959Z,105.5025
2018-06-17T05:41:38.112Z,104.5777
2018-06-17T05:42:43.948Z,104.5777
2018-06-17T05:43:49.397Z,103.5683
2018-06-17T05:44:54.545Z,102.8972
2018-06-17T05:46:00.095Z,103.822
2018-06-17T05:47:05.535Z,103.822
2018-06-17T05:48:10.693Z,103.3173
2018-06-17T05:49:16.400Z,103.5683
2018-06-17T05:50:21.541Z,103.3173
2018-06-17T05:51:27.921Z,103.5683
2018-06-17T05:52:33.073Z,103.3173
2018-06-17T05:53:37.673Z,103.822
2018-06-17T05:54:42.520Z,103.3173
2018-06-17T05:55:48.131Z,104.073
2018-06-17T05:56:53.563Z,103.5683
2018-06-17T05:57:58.982Z,103.3173
2018-06-17T05:59:04.130Z,104.5777
2018-06-17T06:00:09.295Z,104.324
2018-06-17T06:01:14.803Z,104.5777
2018-06-17T06:02:19.972Z,104.5777
2018-06-17T06:03:26.400Z,104.324
2018-06-17T06:04:31.279Z,104.324
2018-06-17T06:05:36.718Z,104.073
2018-06-17T06:06:42.125Z,103.822
2018-06-17T06:07:47.561Z,103.5683
2018-06-17T06:08:52.711Z,103.822
2018-06-17T06:09:58.392Z,102.8972
2018-06-17T06:11:03.272Z,104.324
2018-06-17T06:12:08.307Z,104.5777
2018-06-17T06:13:12.942Z,104.324
2018-06-17T06:14:17.817Z,104.073
2018-06-17T06:15:22.989Z,103.822
2018-06-17T06:16:28.262Z,103.822
2018-06-17T06:17:33.424Z,104.324
2018-06-17T06:18:39.160Z,103.5683
2018-06-17T06:19:43.757Z,103.1482
2018-06-17T06:20:49.207Z,103.3173
2018-06-17T06:21:54.902Z,102.8972
2018-06-17T06:23:00.353Z,102.6435
2018-06-17T06:24:05.501Z,103.1482
2018-06-17T06:25:10.678Z,103.3173
2018-06-17T06:26:15.829Z,103.3173
2018-06-17T06:27:21.301Z,102.8972
2018-06-17T06:28:26.860Z,103.3173
2018-06-17T06:29:32.016Z,102.6435
2018-06-17T06:30:37.691Z,103.3173
2018-06-17T06:31:42.566Z,102.8972
2018-06-17T06:32:47.159Z,102.3925
2018-06-17T06:33:52.661Z,102.3925
2018-06-17T06:34:58.095Z,102.3925
2018-06-17T06:36:03.239Z,102.1388
2018-06-17T06:37:08.704Z,102.3925
2018-06-17T06:38:13.531Z,101.8878
2018-06-17T06:39:18.676Z,103.1482
2018-06-17T06:40:24.462Z,102.3925
2018-06-17T06:41:29.625Z,102.8972
2018-06-17T06:42:35.470Z,102.8972
2018-06-17T06:43:40.377Z,103.1482
2018-06-17T06:44:45.230Z,102.8972
2018-06-17T06:45:50.627Z,103.3173
2018-06-17T06:46:56.065Z,103.3173
2018-06-17T06:48:01.209Z,102.8972
2018-06-17T06:49:06.705Z,102.8972
2018-06-17T06:50:11.602Z,102.6435
2018-06-17T06:51:17.036Z,101.6342
2018-06-17T06:52:22.175Z,102.3925
2018-06-17T06:53:27.315Z,102.8972
2018-06-17T06:54:32.993Z,101.6342
2018-06-17T06:55:37.853Z,102.3925
2018-06-17T06:56:43.007Z,102.6435
2018-06-17T06:57:49.118Z,101.8878
2018-06-17T06:58:53.990Z,101.8878
2018-06-17T06:59:58.294Z,101.6342
2018-06-17T07:01:02.954Z,101.8878
2018-06-17T07:02:07.265Z,101.3831
2018-06-17T07:03:12.704Z,102.3925
2018-06-17T07:04:18.102Z,101.8878
2018-06-17T07:05:23.534Z,101.3831
2018-06-17T07:06:29.482Z,101.8878
2018-06-17T07:07:34.644Z,101.8878
2018-06-17T07:08:39.827Z,102.1388
2018-06-17T07:09:45.664Z,102.1388
2018-06-17T07:10:50.556Z,102.6435
2018-06-17T07:11:55.458Z,101.3831
2018-06-17T07:13:01.024Z,101.1295
2018-06-17T07:14:06.189Z,101.6342
2018-06-17T07:15:11.359Z,101.3831
2018-06-17T07:16:16.767Z,101.3831
2018-06-17T07:17:21.916Z,100.8785
2018-06-17T07:18:42.495Z,100.8785
2018-06-17T07:19:47.926Z,101.3831
2018-06-17T07:20:53.361Z,101.3831
2018-06-17T07:21:58.762Z,101.6342
2018-06-17T07:23:03.370Z,102.6435
2018-06-17T07:24:08.514Z,101.6342
2018-06-17T07:25:14.018Z,102.3925
2018-06-17T07:26:19.185Z,102.3925
2018-06-17T07:27:24.401Z,102.1388
2018-06-17T07:28:30.237Z,101.8878
2018-06-17T07:29:35.382Z,101.3831
2018-06-17T07:30:40.602Z,101.1295
2018-06-17T07:31:45.746Z,101.1295
2018-06-17T07:32:50.610Z,100.7094
2018-06-17T07:33:56.303Z,101.6342
2018-06-17T07:35:01.459Z,100.8785
2018-06-17T07:36:06.335Z,100.8785
2018-06-17T07:37:11.072Z,99.9537
2018-06-17T07:38:15.662Z,100.8785
2018-06-17T07:39:20.822Z,100.4583
2018-06-17T07:40:26.563Z,99.7026
2018-06-17T07:41:31.720Z,99.449
2018-06-17T07:42:36.984Z,100.4583
2018-06-17T07:43:42.208Z,100.2073
2018-06-17T07:44:47.660Z,99.9537
2018-06-17T07:45:52.793Z,99.9537
2018-06-17T07:46:58.229Z,99.9537
2018-06-17T07:48:03.122Z,100.4583
2018-06-17T07:49:08.547Z,100.4583
2018-06-17T07:50:13.147Z,99.1979
2018-06-17T07:51:18.575Z,100.7094
2018-06-17T07:52:23.991Z,100.2073
2018-06-17T07:53:29.157Z,100.2073
2018-06-17T07:54:34.723Z,100.4583
2018-06-17T07:55:39.876Z,99.449
2018-06-17T07:56:45.025Z,99.7026
2018-06-17T07:57:50.862Z,100.2073
2018-06-17T07:58:55.456Z,99.7026
2018-06-17T08:00:00.886Z,100.7094
2018-06-17T08:01:05.553Z,98.9443
2018-06-17T08:02:10.739Z,100.2073
2018-06-17T08:03:15.895Z,99.9537
2018-06-17T08:04:21.193Z,99.9537
2018-06-17T08:05:26.335Z,100.2073
2018-06-17T08:06:31.811Z,100.7094
2018-06-17T08:07:37.249Z,99.9537
2018-06-17T08:08:42.408Z,99.7026
2018-06-17T08:09:47.971Z,100.7094
2018-06-17T08:10:53.928Z,100.2073
2018-06-17T08:11:59.276Z,100.2073
2018-06-17T08:13:04.964Z,99.449
2018-06-17T08:14:10.403Z,99.7026
2018-06-17T08:15:15.559Z,99.9537
2018-06-17T08:16:20.684Z,100.8785
2018-06-17T08:17:25.550Z,99.9537
2018-06-17T08:18:30.826Z,99.7026
2018-06-17T08:19:35.973Z,99.9537
2018-06-17T08:20:40.855Z,100.4583
2018-06-17T08:21:45.573Z,99.7026
2018-06-17T08:22:50.722Z,100.2073
2018-06-17T08:23:55.593Z,99.7026
2018-06-17T08:25:00.706Z,99.9537
2018-06-17T08:26:05.299Z,101.8878
2018-06-17T08:27:10.457Z,100.8785
2018-06-17T08:28:16.065Z,100.6274
2018-06-17T08:29:20.942Z,100.4583
2018-06-17T08:30:41.179Z,100.6274
2018-06-17T08:31:46.621Z,100.6274
2018-06-17T08:32:52.052Z,100.4583
2018-06-17T08:33:57.755Z,100.2073
2018-06-17T08:35:02.932Z,100.8785
2018-06-17T08:36:07.806Z,100.8785
2018-06-17T08:37:13.213Z,99.9537
2018-06-17T08:38:18.076Z,100.6274
2018-06-17T08:39:23.501Z,100.6274
2018-06-17T08:40:29.359Z,99.9537
2018-06-17T08:41:34.239Z,99.9537
2018-06-17T08:42:39.179Z,99.1979
2018-06-17T08:43:44.059Z,99.7026
2018-06-17T08:44:49.212Z,98.6933
2018-06-17T08:45:54.768Z,100.2073
2018-06-17T08:46:59.653Z,100.2073
2018-06-17T08:48:05.084Z,99.7026
2018-06-17T08:49:10.773Z,100.2073
2018-06-17T08:50:15.360Z,99.7026
2018-06-17T08:51:20.546Z,99.1979
2018-06-17T08:52:25.671Z,99.7026
2018-06-17T08:53:30.816Z,98.6933
2018-06-17T08:54:35.981Z,99.449
2018-06-17T08:55:40.857Z,99.449
2018-06-17T08:56:46.283Z,99.9537
2018-06-17T08:57:51.798Z,99.9537
2018-06-17T08:58:57.230Z,99.7026
2018-06-17T09:00:02.384Z,100.2073
2018-06-17T09:01:07.987Z,100.4583
2018-06-17T09:02:13.426Z,100.2073
2018-06-17T09:03:18.637Z,99.1979
2018-06-17T09:04:24.295Z,99.7026
2018-06-17T09:05:29.490Z,100.2073
2018-06-17T09:06:34.895Z,99.9537
2018-06-17T09:07:40.041Z,98.9443
2018-06-17T09:08:44.630Z,99.449
2018-06-17T09:09:50.181Z,98.9443
2018-06-17T09:10:55.634Z,98.9443
2018-06-17T09:12:01.065Z,99.1979
2018-06-17T09:13:06.013Z,100.2073
2018-06-17T09:14:10.902Z,99.9537
2018-06-17T09:15:16.054Z,99.7026
2018-06-17T09:16:21.479Z,98.9443
2018-06-17T09:17:26.361Z,99.7026
2018-06-17T09:18:31.962Z,99.449
2018-06-17T09:19:36.837Z,99.7026
2018-06-17T09:20:41.982Z,100.4583
2018-06-17T09:21:47.816Z,99.1979
2018-06-17T09:22:52.968Z,99.7026
2018-06-17T09:23:57.543Z,99.449
2018-06-17T09:25:02.812Z,99.449
2018-06-17T09:26:07.688Z,99.9537
2018-06-17T09:27:12.555Z,100.4583
2018-06-17T09:28:17.957Z,99.9537
2018-06-17T09:29:22.845Z,100.4583
2018-06-17T09:30:28.926Z,100.2073
2018-06-17T09:31:33.817Z,100.2073
2018-06-17T09:32:38.709Z,100.2073
2018-06-17T09:33:44.254Z,100.8785
2018-06-17T09:34:49.684Z,100.2073
2018-06-17T09:35:54.844Z,99.9537
2018-06-17T09:37:00.396Z,100.4583
2018-06-17T09:38:05.505Z,99.1979
2018-06-17T09:39:10.380Z,100.2073
2018-06-17T09:40:15.774Z,100.2073
2018-06-17T09:41:20.644Z,100.2073
2018-06-17T09:42:26.843Z,99.1979
2018-06-17T09:43:32.001Z,98.9443
2018-06-17T09:44:36.894Z,99.449
2018-06-17T09:45:42.561Z,99.449
2018-06-17T09:46:47.160Z,99.7026
2018-06-17T09:47:51.755Z,100.6274
2018-06-17T09:48:57.151Z,99.449
2018-06-17T09:50:02.058Z,99.449
2018-06-17T09:51:07.223Z,98.9443
2018-06-17T09:52:12.614Z,100.2073
2018-06-17T09:53:17.757Z,100.2073
2018-06-17T09:54:23.232Z,99.1979
2018-06-17T09:55:29.104Z,100.4583
2018-06-17T09:56:34.547Z,99.449
2018-06-17T09:57:40.104Z,99.7026
2018-06-17T09:58:45.249Z,98.6933
2018-06-17T09:59:50.128Z,98.6933
2018-06-17T10:00:55.518Z,99.9537
2018-06-17T10:02:00.673Z,100.2073
2018-06-17T10:03:05.830Z,98.6933
2018-06-17T10:04:10.953Z,98.9443
2018-06-17T10:05:15.544Z,99.449
2018-06-17T10:06:20.979Z,99.449
2018-06-17T10:07:26.485Z,98.6933
2018-06-17T10:08:31.658Z,99.449
2018-06-17T10:09:37.065Z,99.7026
2018-06-17T10:10:41.644Z,99.449
2018-06-17T10:11:46.503Z,99.449
2018-06-17T10:12:51.792Z,98.2731
2018-06-17T10:13:57.223Z,98.6933
2018-06-17T10:15:02.114Z,98.9443
2018-06-17T10:16:07.222Z,98.2731
2018-06-17T10:17:12.657Z,98.2731
2018-06-17T10:18:17.232Z,99.1979
2018-06-17T10:19:22.927Z,98.5242
2018-06-17T10:20:28.087Z,99.449
2018-06-17T10:21:33.940Z,98.5242
2018-06-17T10:22:39.095Z,99.9537
2018-06-17T10:23:44.250Z,98.6933
2018-06-17T10:24:49.705Z,98.9443
2018-06-17T10:25:54.886Z,98.9443
2018-06-17T10:26:59.756Z,99.1979
2018-06-17T10:28:05.027Z,98.104
2018-06-17T10:29:09.900Z,99.1979
2018-06-17T10:30:15.092Z,98.5242
2018-06-17T10:31:20.778Z,98.6933
2018-06-17T10:32:26.216Z,98.9443
2018-06-17T10:33:31.672Z,99.7026
2018-06-17T10:34:36.904Z,99.1979
2018-06-17T10:35:42.057Z,99.9537
2018-06-17T10:36:47.908Z,99.9537
2018-06-17T10:37:53.339Z,98.9443
2018-06-17T10:38:58.196Z,100.4583
2018-06-17T10:40:02.906Z,99.449
2018-06-17T10:41:07.496Z,99.7026
2018-06-17T10:42:12.939Z,99.449
2018-06-17T10:43:18.508Z,98.5242
2018-06-17T10:44:24.426Z,98.5242
2018-06-17T10:45:29.880Z,99.7026
2018-06-17T10:46:35.241Z,98.9443
2018-06-17T10:47:40.675Z,98.9443
2018-06-17T10:48:46.530Z,98.5242
2018-06-17T10:49:51.201Z,99.9537
2018-06-17T10:50:56.491Z,99.449
2018-06-17T10:52:01.331Z,99.449
2018-06-17T10:53:05.930Z,99.449
2018-06-17T10:54:11.363Z,99.449
2018-06-17T10:55:16.768Z,99.1979
2018-06-17T10:56:22.220Z,99.449
2018-06-17T10:57:27.843Z,99.1979
2018-06-17T10:58:32.980Z,99.449
2018-06-17T10:59:38.128Z,99.449
2018-06-17T11:00:43.819Z,99.449
2018-06-17T11:01:49.252Z,99.7026
2018-06-17T11:02:54.141Z,99.9537
2018-06-17T11:03:59.256Z,99.1979
2018-06-17T11:05:04.413Z,99.1979
2018-06-17T11:06:09.883Z,99.449
2018-06-17T11:07:15.032Z,99.9537
2018-06-17T11:08:20.187Z,99.7026
2018-06-17T11:09:26.333Z,99.7026
2018-06-17T11:10:31.508Z,99.9537
2018-06-17T11:11:35.817Z,99.7026
2018-06-17T11:12:41.649Z,100.2073
2018-06-17T11:13:46.226Z,100.6274
2018-06-17T11:14:51.371Z,98.9443
2018-06-17T11:15:56.873Z,99.7026
2018-06-17T11:17:02.037Z,99.449
2018-06-17T11:18:07.227Z,100.2073
2018-06-17T11:19:12.777Z,100.6274
2018-06-17T11:20:17.641Z,99.7026
2018-06-17T11:21:22.805Z,99.9537
2018-06-17T11:22:28.487Z,100.2073
2018-06-17T11:23:32.789Z,99.9537
2018-06-17T11:24:38.271Z,99.7026
2018-06-17T11:25:43.305Z,100.6274
2018-06-17T11:26:48.461Z,100.8785
2018-06-17T11:27:54.294Z,99.9537
2018-06-17T11:28:59.743Z,99.449
2018-06-17T11:30:04.621Z,100.4583
2018-06-17T11:31:10.028Z,99.9537
2018-06-17T11:32:15.471Z,100.4583
2018-06-17T11:33:20.905Z,100.2073
2018-06-17T11:34:26.300Z,99.449
2018-06-17T11:35:31.755Z,99.449
2018-06-17T11:36:37.562Z,99.449
2018-06-17T11:37:42.762Z,98.5242
2018-06-17T11:38:47.758Z,99.449
2018-06-17T11:39:53.515Z,100.2073
2018-06-17T11:40:58.964Z,99.1979
2018-06-17T11:42:04.115Z,99.1979
2018-06-17T11:43:09.544Z,98.9443
2018-06-17T11:44:14.979Z,99.1979
2018-06-17T11:45:19.560Z,99.1979
2018-06-17T11:46:24.955Z,98.6933
2018-06-17T11:47:30.116Z,98.9443
2018-06-17T11:48:36.059Z,98.5242
2018-06-17T11:49:41.229Z,97.0973
2018-06-17T11:50:46.384Z,98.6933
2018-06-17T11:51:52.078Z,98.6933
2018-06-17T11:52:57.243Z,98.5242
2018-06-17T11:54:01.848Z,97.3483
2018-06-17T11:55:06.834Z,98.9443
2018-06-17T11:56:12.276Z,98.2731
2018-06-17T11:57:17.725Z,98.6933
2018-06-17T11:58:23.409Z,98.9443
2018-06-17T11:59:28.580Z,98.2731
2018-06-17T12:00:34.622Z,98.9443
2018-06-17T12:01:40.064Z,98.2731
2018-06-17T12:02:44.940Z,98.6933
2018-06-17T12:03:50.447Z,97.3483
2018-06-17T12:04:55.617Z,98.2731
2018-06-17T12:06:01.051Z,98.5242
2018-06-17T12:07:05.988Z,98.9443
2018-06-17T12:08:10.887Z,98.2731
2018-06-17T12:09:16.043Z,97.853
2018-06-17T12:10:21.833Z,98.2731
2018-06-17T12:11:26.699Z,97.853
2018-06-17T12:12:32.343Z,98.5242
2018-06-17T12:13:37.787Z,98.6933
2018-06-17T12:14:43.261Z,98.0221
2018-06-17T12:15:49.103Z,97.0973
2018-06-17T12:16:53.695Z,98.2731
2018-06-17T12:17:58.837Z,97.3483
2018-06-17T12:19:04.677Z,98.2731
2018-06-17T12:20:09.835Z,98.2731
2018-06-17T12:21:15.269Z,98.2731
2018-06-17T12:22:20.735Z,98.0221
2018-06-17T12:23:25.336Z,98.104
2018-06-17T12:24:30.654Z,98.2731
2018-06-17T12:25:35.815Z,98.6933
2018-06-17T12:26:41.243Z,97.853
2018-06-17T12:27:46.842Z,96.3416
2018-06-17T12:28:52.586Z,98.0221
2018-06-17T12:29:57.732Z,97.602
2018-06-17T12:31:02.294Z,97.853
2018-06-17T12:32:07.166Z,97.0973
2018-06-17T12:33:12.636Z,98.104
2018-06-17T12:34:17.557Z,97.602
2018-06-17T12:35:22.161Z,97.0973
2018-06-17T12:36:27.741Z,97.853
2018-06-17T12:37:32.621Z,97.0973
2018-06-17T12:38:38.061Z,97.853
2018-06-17T12:39:43.942Z,97.853
2018-06-17T12:40:49.375Z,97.3483
2018-06-17T12:41:54.607Z,96.8463
2018-06-17T12:43:00.437Z,97.3483
2018-06-17T12:44:05.602Z,97.853
2018-06-17T12:45:10.473Z,97.853
2018-06-17T12:46:15.928Z,97.853
2018-06-17T12:47:21.076Z,97.3483
2018-06-17T12:48:26.845Z,97.3483
2018-06-17T12:49:31.991Z,97.602
2018-06-17T12:50:37.120Z,97.0973
2018-06-17T12:51:42.902Z,97.853
2018-06-17T12:52:48.096Z,97.3483
2018-06-17T12:53:53.256Z,97.853
2018-06-17T12:54:58.669Z,96.8463
2018-06-17T12:56:03.540Z,97.3483
2018-06-17T12:57:08.396Z,96.3416
2018-06-17T12:58:13.791Z,96.0879
2018-06-17T12:59:18.380Z,97.602